createdAt,value
2022-09-15T00:00:30.107Z,23.24
2022-09-15T00:02:56.739Z,23.24
2022-09-15T00:05:23.398Z,23.23
2022-09-15T00:07:49.957Z,23.23
2022-09-15T00:10:17.406Z,23.22
2022-09-15T00:12:44.019Z,23.22
2022-09-15T00:15:14.848Z,23.22
2022-09-15T00:17:43.039Z,23.22
2022-09-15T00:20:10.915Z,23.11
2022-09-15T00:22:37.998Z,23.18
2022-09-15T00:25:05.529Z,23.22
2022-09-15T00:27:33.267Z,23.21
2022-09-15T00:29:59.955Z,23.21
2022-09-15T00:32:26.440Z,23.21
2022-09-15T00:34:53.463Z,23.21
2022-09-15T00:37:20.517Z,23.22
2022-09-15T00:39:47.277Z,23.21
2022-09-15T00:42:19.291Z,23.14
2022-09-15T00:44:54.984Z,23.19
2022-09-15T00:47:27.263Z,23.19
2022-09-15T00:50:01.232Z,23.14
2022-09-15T00:52:39.110Z,23.18
2022-09-15T00:55:28.315Z,23.10
2022-09-15T00:58:09.752Z,23.17
2022-09-15T01:00:37.877Z,23.13
2022-09-15T01:03:04.520Z,23.18
2022-09-15T01:05:36.824Z,23.17
2022-09-15T01:08:07.231Z,23.12
2022-09-15T01:10:37.237Z,23.16
2022-09-15T01:13:09.480Z,23.10
2022-09-15T01:15:58.232Z,23.15
2022-09-15T01:18:33.176Z,23.15
2022-09-15T01:21:25.963Z,23.14
2022-09-15T01:23:52.575Z,23.14
2022-09-15T01:26:52.607Z,23.14
2022-09-15T01:29:48.935Z,23.14
2022-09-15T01:33:02.843Z,23.13
2022-09-15T01:35:54.303Z,23.11
2022-09-15T01:38:28.482Z,23.09
2022-09-15T01:41:09.072Z,23.10
2022-09-15T01:43:55.176Z,23.11
2022-09-15T01:46:26.225Z,23.07
2022-09-15T01:48:55.150Z,23.02
2022-09-15T01:51:24.112Z,23.09
2022-09-15T01:53:53.605Z,23.10
2022-09-15T01:56:20.327Z,23.09
2022-09-15T01:58:50.719Z,23.10
2022-09-15T02:01:26.514Z,23.09
2022-09-15T02:03:58.423Z,23.05
2022-09-15T02:06:58.411Z,23.10
2022-09-15T02:09:33.397Z,23.08
2022-09-15T02:12:20.351Z,23.08
2022-09-15T02:14:52.668Z,23.09
2022-09-15T02:17:22.014Z,23.01
2022-09-15T02:19:53.768Z,23.03
2022-09-15T02:22:27.065Z,23.09
2022-09-15T02:24:59.836Z,23.09
2022-09-15T02:27:30.010Z,23.05
2022-09-15T02:30:03.054Z,23.08
2022-09-15T02:32:33.300Z,23.07
2022-09-15T02:35:06.846Z,23.06
2022-09-15T02:37:36.558Z,23.05
2022-09-15T02:40:04.638Z,23.05
2022-09-15T02:42:32.654Z,23.05
2022-09-15T02:45:00.702Z,23.06
2022-09-15T02:47:28.504Z,23.05
2022-09-15T02:49:55.524Z,23.04
2022-09-15T02:52:22.205Z,23.05
2022-09-15T02:54:48.984Z,23.05
2022-09-15T02:57:16.420Z,23.04
2022-09-15T03:00:01.838Z,23.03
2022-09-15T03:02:28.895Z,23.01
2022-09-15T03:04:55.531Z,23.03
2022-09-15T03:07:22.190Z,23.05
2022-09-15T03:09:48.670Z,23.05
2022-09-15T03:12:15.871Z,23.05
2022-09-15T03:14:42.961Z,23.07
2022-09-15T03:17:09.772Z,23.07
2022-09-15T03:19:36.314Z,23.08
2022-09-15T03:22:03.187Z,23.06
2022-09-15T03:24:29.721Z,23.07
2022-09-15T03:26:56.807Z,23.08
2022-09-15T03:29:23.391Z,23.09
2022-09-15T03:31:50.015Z,23.04
2022-09-15T03:34:16.661Z,23.08
2022-09-15T03:36:43.368Z,23.08
2022-09-15T03:39:12.025Z,23.08
2022-09-15T03:41:38.611Z,23.09
2022-09-15T03:44:05.240Z,23.08
2022-09-15T03:46:31.866Z,23.09
2022-09-15T03:48:58.455Z,23.09
2022-09-15T03:51:25.473Z,23.10
2022-09-15T03:53:52.116Z,23.11
2022-09-15T03:56:28.116Z,23.13
2022-09-15T03:58:54.723Z,23.12
2022-09-15T04:01:21.888Z,23.13
2022-09-15T04:03:51.410Z,23.14
2022-09-15T04:06:20.115Z,23.15
2022-09-15T04:08:47.600Z,23.15
2022-09-15T04:11:14.572Z,23.15
2022-09-15T04:13:42.004Z,23.16
2022-09-15T04:16:17.365Z,23.16
2022-09-15T04:18:44.287Z,23.17
2022-09-15T04:21:13.565Z,23.16
2022-09-15T04:23:41.119Z,23.16
2022-09-15T04:26:11.925Z,23.16
2022-09-15T04:28:39.671Z,23.09
2022-09-15T04:31:09.057Z,23.18
2022-09-15T04:33:38.336Z,23.17
2022-09-15T04:36:07.998Z,23.17
2022-09-15T04:38:35.804Z,23.17
2022-09-15T04:41:03.176Z,23.17
2022-09-15T04:43:30.151Z,23.18
2022-09-15T04:45:56.619Z,23.17
2022-09-15T04:48:23.482Z,23.18
2022-09-15T04:50:50.454Z,23.16
2022-09-15T04:53:17.157Z,23.17
2022-09-15T04:55:44.612Z,23.16
2022-09-15T04:58:11.941Z,23.15
2022-09-15T05:00:42.918Z,23.05
2022-09-15T05:03:14.162Z,23.15
2022-09-15T05:05:41.621Z,23.16
2022-09-15T05:08:08.308Z,23.18
2022-09-15T05:10:35.396Z,23.19
2022-09-15T05:13:01.910Z,22.60
2022-09-15T05:15:28.456Z,23.21
2022-09-15T05:17:55.028Z,23.23
2022-09-15T05:20:22.423Z,23.23
2022-09-15T05:22:48.915Z,23.23
2022-09-15T05:25:15.589Z,23.24
2022-09-15T05:27:42.324Z,23.25
2022-09-15T05:30:35.848Z,23.27
2022-09-15T05:32:56.869Z,23.27
2022-09-15T05:35:26.344Z,23.27
2022-09-15T05:37:52.860Z,23.30
2022-09-15T05:40:21.806Z,23.28
2022-09-15T05:42:48.421Z,23.31
2022-09-15T05:47:41.553Z,23.38
2022-09-15T05:50:08.435Z,23.41
2022-09-15T05:52:35.686Z,23.44
2022-09-15T05:55:02.257Z,23.46
2022-09-15T05:57:29.692Z,23.48
2022-09-15T05:59:56.200Z,23.49
2022-09-15T06:02:22.959Z,23.50
2022-09-15T06:04:49.587Z,23.53
2022-09-15T06:07:16.555Z,23.55
2022-09-15T06:09:43.571Z,23.57
2022-09-15T06:12:10.200Z,23.58
2022-09-15T06:14:36.715Z,23.58
2022-09-15T06:17:03.328Z,23.59
2022-09-15T06:19:29.817Z,23.58
2022-09-15T06:21:56.408Z,23.60
2022-09-15T06:24:23.185Z,23.61
2022-09-15T06:26:49.764Z,23.61
2022-09-15T06:29:16.270Z,23.59
2022-09-15T06:31:43.087Z,23.63
2022-09-15T06:34:11.233Z,23.61
2022-09-15T06:36:38.946Z,23.62
2022-09-15T06:39:05.614Z,23.61
2022-09-15T06:41:58.409Z,23.60
2022-09-15T06:44:22.047Z,23.60
2022-09-15T06:46:50.275Z,23.56
2022-09-15T06:49:17.248Z,23.60
2022-09-15T06:51:43.797Z,23.63
2022-09-15T06:54:10.495Z,23.56
2022-09-15T06:56:38.357Z,23.67
2022-09-15T06:59:05.186Z,23.69
2022-09-15T07:01:35.417Z,23.69
2022-09-15T07:04:05.558Z,23.71
2022-09-15T07:06:33.581Z,23.73
2022-09-15T07:09:01.665Z,23.64
2022-09-15T07:11:29.053Z,23.76
2022-09-15T07:13:55.568Z,23.78
2022-09-15T07:16:22.751Z,23.81
2022-09-15T07:18:55.474Z,23.83
2022-09-15T07:21:22.157Z,23.84
2022-09-15T07:23:50.023Z,23.76
2022-09-15T07:26:20.708Z,23.87
2022-09-15T07:28:50.309Z,23.88
2022-09-15T07:31:20.882Z,23.89
2022-09-15T07:33:47.674Z,23.93
2022-09-15T07:36:15.150Z,23.96
2022-09-15T07:38:45.172Z,23.98
2022-09-15T07:41:20.793Z,24.01
2022-09-15T07:43:52.518Z,24.02
2022-09-15T07:46:21.759Z,24.03
2022-09-15T07:48:50.564Z,24.07
2022-09-15T07:51:18.704Z,24.07
2022-09-15T07:53:47.131Z,24.10
2022-09-15T07:56:14.578Z,24.11
2022-09-15T07:58:41.173Z,24.12
2022-09-15T08:01:11.531Z,24.12
2022-09-15T08:03:48.789Z,24.06
2022-09-15T08:06:18.156Z,24.14
2022-09-15T08:08:44.843Z,24.16
2022-09-15T08:11:18.488Z,24.18
2022-09-15T08:13:49.965Z,24.23
2022-09-15T08:16:22.279Z,24.17
2022-09-15T08:18:49.593Z,24.30
2022-09-15T08:21:22.295Z,24.32
2022-09-15T08:23:57.368Z,24.35
2022-09-15T08:28:50.624Z,24.35
2022-09-15T08:31:17.762Z,24.36
2022-09-15T08:33:51.907Z,24.38
2022-09-15T08:36:19.058Z,24.39
2022-09-15T08:38:45.920Z,24.16
2022-09-15T08:41:18.496Z,24.45
2022-09-15T08:44:17.681Z,24.46
2022-09-15T08:46:53.207Z,24.45
2022-09-15T08:49:50.090Z,24.48
2022-09-15T08:52:24.383Z,24.49
2022-09-15T08:54:57.135Z,24.51
2022-09-15T08:57:25.962Z,24.52
2022-09-15T08:59:55.033Z,24.55
2022-09-15T09:02:27.658Z,24.56
2022-09-15T09:04:59.030Z,24.56
2022-09-15T09:07:34.595Z,24.58
2022-09-15T09:10:19.006Z,24.59
2022-09-15T09:12:53.925Z,24.61
2022-09-15T09:15:56.789Z,24.63
2022-09-15T09:18:26.221Z,24.62
2022-09-15T09:21:11.486Z,24.64
2022-09-15T09:23:54.458Z,24.65
2022-09-15T09:26:21.593Z,24.65
2022-09-15T09:28:55.452Z,24.63
2022-09-15T09:31:24.683Z,24.66
2022-09-15T09:34:15.313Z,24.67
2022-09-15T09:36:42.801Z,24.67
2022-09-15T09:39:15.098Z,24.67
2022-09-15T09:41:42.530Z,24.70
2022-09-15T09:44:14.429Z,24.69
2022-09-15T09:46:42.263Z,24.70
2022-09-15T09:49:22.980Z,24.71
2022-09-15T09:51:55.217Z,24.72
2022-09-15T09:54:24.912Z,24.72
2022-09-15T09:56:53.597Z,24.72
2022-09-15T09:59:38.656Z,24.74
2022-09-15T10:02:10.461Z,24.74
2022-09-15T10:04:37.472Z,24.75
2022-09-15T10:07:05.572Z,24.76
2022-09-15T10:09:33.486Z,24.75
2022-09-15T10:12:05.077Z,24.77
2022-09-15T10:14:35.506Z,24.77
2022-09-15T10:17:07.897Z,24.78
2022-09-15T10:19:58.199Z,24.78
2022-09-15T10:22:37.425Z,24.80
2022-09-15T10:25:35.675Z,24.79
2022-09-15T10:28:15.216Z,24.80
2022-09-15T10:31:07.981Z,24.79
2022-09-15T10:33:37.327Z,24.79
2022-09-15T10:36:04.093Z,24.80
2022-09-15T10:38:58.075Z,24.81
2022-09-15T10:41:28.614Z,24.80
2022-09-15T10:44:13.766Z,24.83
2022-09-15T10:47:17.694Z,24.82
2022-09-15T10:49:53.189Z,24.82
2022-09-15T10:52:43.944Z,24.82
2022-09-15T10:55:48.971Z,24.83
2022-09-15T10:58:41.078Z,24.83
2022-09-15T11:01:43.224Z,24.83
2022-09-15T11:04:30.099Z,24.86
2022-09-15T11:07:14.131Z,24.86
2022-09-15T11:10:13.080Z,24.87
2022-09-15T11:12:45.908Z,24.88
2022-09-15T11:15:35.022Z,24.89
2022-09-15T11:18:19.664Z,24.90
2022-09-15T11:21:11.122Z,24.90
2022-09-15T11:23:44.228Z,24.90
2022-09-15T11:26:22.217Z,24.88
2022-09-15T11:29:01.350Z,24.91
2022-09-15T11:31:34.222Z,24.91
2022-09-15T11:34:19.444Z,24.94
2022-09-15T11:37:12.060Z,24.90
2022-09-15T11:39:51.917Z,24.94
2022-09-15T11:42:33.266Z,24.85
2022-09-15T11:45:01.459Z,24.96
2022-09-15T11:47:27.913Z,24.96
2022-09-15T11:50:18.250Z,24.90
2022-09-15T11:53:29.897Z,24.97
2022-09-15T11:55:59.472Z,24.97
2022-09-15T11:58:41.060Z,24.97
2022-09-15T12:01:10.571Z,24.97
2022-09-15T12:03:52.822Z,24.98
2022-09-15T12:06:45.563Z,24.98
2022-09-15T12:09:15.881Z,24.98
2022-09-15T12:11:52.974Z,24.95
2022-09-15T12:14:43.724Z,24.99
2022-09-15T12:17:23.077Z,24.99
2022-09-15T12:20:02.179Z,25.01
2022-09-15T12:22:35.716Z,25.04
2022-09-15T12:25:24.411Z,25.08
2022-09-15T12:28:21.946Z,25.09
2022-09-15T12:30:50.681Z,25.11
2022-09-15T12:33:42.121Z,25.13
2022-09-15T12:36:39.566Z,25.15
2022-09-15T12:39:20.603Z,25.06
2022-09-15T12:42:05.016Z,25.05
2022-09-15T12:44:37.058Z,25.16
2022-09-15T12:47:07.581Z,25.18
2022-09-15T12:49:45.884Z,25.10
2022-09-15T12:52:13.445Z,25.22
2022-09-15T12:54:42.501Z,25.25
2022-09-15T12:57:35.683Z,25.26
2022-09-15T13:02:46.021Z,25.31
2022-09-15T13:05:14.210Z,25.31
2022-09-15T13:07:56.987Z,25.32
2022-09-15T13:10:33.362Z,25.35
2022-09-15T13:13:15.996Z,25.35
2022-09-15T13:15:46.469Z,25.38
2022-09-15T13:18:15.906Z,25.40
2022-09-15T13:20:56.167Z,25.39
2022-09-15T13:23:25.537Z,25.41
2022-09-15T13:25:56.417Z,25.43
2022-09-15T13:28:24.633Z,25.45
2022-09-15T13:31:15.678Z,25.45
2022-09-15T13:39:59.856Z,25.50
2022-09-15T13:42:46.005Z,25.50
2022-09-15T13:45:25.339Z,25.52
2022-09-15T13:48:03.969Z,25.53
2022-09-15T13:50:42.930Z,25.55
2022-09-15T13:53:37.829Z,25.58
2022-09-15T13:56:08.955Z,25.54
2022-09-15T14:01:23.662Z,25.60
2022-09-15T14:04:21.500Z,25.65
2022-09-15T14:06:51.916Z,25.67
2022-09-15T14:09:23.455Z,25.68
2022-09-15T14:11:53.376Z,25.60
2022-09-15T14:14:41.120Z,25.66
2022-09-15T14:17:24.406Z,25.63
2022-09-15T14:19:59.862Z,25.60
2022-09-15T14:22:34.090Z,25.58
2022-09-15T14:25:06.278Z,25.58
2022-09-15T14:27:34.651Z,25.58
2022-09-15T14:30:08.220Z,25.56
2022-09-15T14:32:39.233Z,25.57
2022-09-15T14:35:09.229Z,25.47
2022-09-15T14:37:35.843Z,25.57
2022-09-15T14:40:19.367Z,25.59
2022-09-15T14:42:46.028Z,25.59
2022-09-15T14:48:07.258Z,25.62
2022-09-15T14:50:34.120Z,25.64
2022-09-15T14:53:11.630Z,25.64
2022-09-15T14:56:08.051Z,25.64
2022-09-15T14:58:58.186Z,25.67
2022-09-15T15:01:28.022Z,25.68
2022-09-15T15:04:12.843Z,25.18
2022-09-15T15:06:51.663Z,25.68
2022-09-15T15:09:21.522Z,25.69
2022-09-15T15:11:56.822Z,25.69
2022-09-15T15:14:23.890Z,25.70
2022-09-15T15:17:02.359Z,25.59
2022-09-15T15:19:39.741Z,25.61
2022-09-15T15:22:26.882Z,25.43
2022-09-15T15:27:26.500Z,25.03
2022-09-15T15:29:53.144Z,24.83
2022-09-15T15:32:25.056Z,24.60
2022-09-15T15:34:59.759Z,24.48
2022-09-15T15:37:27.624Z,24.38
2022-09-15T15:40:00.044Z,24.27
2022-09-15T15:42:29.023Z,24.21
2022-09-15T15:45:04.437Z,24.16
2022-09-15T15:47:35.173Z,24.06
2022-09-15T15:50:19.048Z,24.02
2022-09-15T15:52:45.707Z,23.95
2022-09-15T15:55:17.399Z,23.91
2022-09-15T15:57:44.752Z,23.87
2022-09-15T16:00:40.761Z,23.83
2022-09-15T16:03:08.764Z,23.78
2022-09-15T16:05:36.026Z,23.75
2022-09-15T16:08:25.919Z,23.71
2022-09-15T16:10:54.641Z,23.62
2022-09-15T16:13:22.314Z,23.59
2022-09-15T16:15:49.498Z,23.60
2022-09-15T16:18:16.782Z,23.56
2022-09-15T16:20:43.748Z,23.48
2022-09-15T16:23:18.471Z,23.50
2022-09-15T16:25:54.579Z,23.51
2022-09-15T16:28:21.756Z,23.47
2022-09-15T16:30:48.311Z,23.45
2022-09-15T16:33:16.275Z,23.41
2022-09-15T16:35:51.055Z,23.35
2022-09-15T16:38:20.041Z,23.50
2022-09-15T16:40:47.834Z,23.59
2022-09-15T16:43:16.871Z,23.54
2022-09-15T16:45:44.376Z,23.74
2022-09-15T16:51:02.175Z,23.84
2022-09-15T16:53:30.973Z,23.80
2022-09-15T16:55:57.589Z,23.75
2022-09-15T16:58:24.172Z,23.67
2022-09-15T17:00:52.583Z,23.57
2022-09-15T17:03:22.990Z,23.48
2022-09-15T17:06:00.815Z,23.34
2022-09-15T17:08:32.881Z,23.30
2022-09-15T17:11:02.020Z,23.26
2022-09-15T17:13:32.695Z,23.21
2022-09-15T17:16:00.540Z,23.17
2022-09-15T17:18:28.232Z,23.16
2022-09-15T17:20:56.012Z,23.15
2022-09-15T17:23:27.695Z,23.17
2022-09-15T17:25:58.427Z,23.20
2022-09-15T17:28:27.782Z,23.24
2022-09-15T17:31:05.478Z,23.23
2022-09-15T17:36:00.304Z,23.37
2022-09-15T17:38:27.167Z,23.39
2022-09-15T17:40:59.998Z,23.40
2022-09-15T17:43:28.973Z,23.41
2022-09-15T17:45:56.333Z,23.35
2022-09-15T17:48:23.821Z,23.40
2022-09-15T17:50:50.941Z,23.41
2022-09-15T17:53:18.575Z,23.40
2022-09-15T17:55:45.094Z,23.41
2022-09-15T17:58:12.910Z,23.30
2022-09-15T18:00:42.402Z,23.40
2022-09-15T18:03:18.086Z,23.38
2022-09-15T18:05:44.797Z,23.37
2022-09-15T18:08:12.491Z,23.31
2022-09-15T18:10:39.468Z,23.25
2022-09-15T18:13:06.999Z,23.22
2022-09-15T18:15:35.369Z,23.20
2022-09-15T18:18:08.410Z,23.22
2022-09-15T18:20:36.741Z,23.23
2022-09-15T18:25:25.498Z,23.25
2022-09-15T18:27:52.119Z,23.25
2022-09-15T18:30:20.346Z,23.23
2022-09-15T18:32:47.784Z,23.23
2022-09-15T18:35:24.966Z,23.22
2022-09-15T18:37:58.078Z,23.21
2022-09-15T18:40:25.425Z,23.14
2022-09-15T18:42:52.377Z,23.17
2022-09-15T18:45:20.471Z,23.14
2022-09-15T18:47:48.757Z,23.12
2022-09-15T18:50:17.586Z,23.13
2022-09-15T18:52:44.717Z,23.11
2022-09-15T18:55:16.620Z,23.13
2022-09-15T18:57:43.569Z,23.13
2022-09-15T19:00:19.407Z,23.13
2022-09-15T19:02:47.166Z,23.05
2022-09-15T19:05:17.773Z,23.12
2022-09-15T19:07:45.320Z,23.10
2022-09-15T19:10:14.304Z,23.10
2022-09-15T19:12:41.124Z,23.08
2022-09-15T19:15:11.327Z,23.09
2022-09-15T19:17:39.643Z,23.07
2022-09-15T19:20:09.894Z,23.07
2022-09-15T19:22:37.053Z,23.07
2022-09-15T19:25:04.721Z,23.05
2022-09-15T19:27:31.306Z,23.05
2022-09-15T19:29:59.921Z,23.03
2022-09-15T19:32:26.772Z,23.02
2022-09-15T19:34:53.592Z,23.01
2022-09-15T19:37:21.631Z,23.00
2022-09-15T19:39:49.404Z,22.99
2022-09-15T19:46:46.219Z,22.87
2022-09-15T19:49:13.041Z,22.92
2022-09-15T19:51:39.786Z,22.90
2022-09-15T19:54:07.161Z,22.90
2022-09-15T19:56:35.168Z,22.88
2022-09-15T19:59:04.147Z,22.87
2022-09-15T20:01:32.579Z,22.87
2022-09-15T20:04:01.883Z,22.88
2022-09-15T20:06:32.511Z,22.87
2022-09-15T20:09:00.173Z,22.86
2022-09-15T20:11:27.369Z,22.82
2022-09-15T20:13:54.701Z,22.86
2022-09-15T20:16:23.956Z,22.84
2022-09-15T20:18:53.896Z,22.84
2022-09-15T20:21:48.642Z,22.79
2022-09-15T20:24:15.222Z,22.83
2022-09-15T20:26:41.964Z,22.83
2022-09-15T20:29:10.395Z,22.83
2022-09-15T20:31:37.178Z,22.82
2022-09-15T20:34:03.894Z,22.79
2022-09-15T20:36:35.995Z,22.82
2022-09-15T20:39:06.219Z,22.81
2022-09-15T20:41:32.898Z,22.81
2022-09-15T20:44:00.153Z,22.80
2022-09-15T20:46:29.256Z,22.81
2022-09-15T20:48:56.069Z,22.81
2022-09-15T20:51:29.417Z,22.80
2022-09-15T20:53:57.780Z,22.80
2022-09-15T20:56:27.116Z,22.79
2022-09-15T20:58:55.732Z,22.79
2022-09-15T21:01:34.098Z,22.77
2022-09-15T21:04:01.079Z,22.76
2022-09-15T21:08:13.424Z,22.78
2022-09-15T21:10:44.536Z,22.76
2022-09-15T21:13:11.616Z,22.79
2022-09-15T21:15:38.191Z,22.81
2022-09-15T21:18:04.958Z,22.83
2022-09-15T21:20:31.619Z,22.85
2022-09-15T21:22:58.285Z,22.85
2022-09-15T21:25:24.937Z,22.86
2022-09-15T21:27:52.280Z,22.87
2022-09-15T21:30:19.193Z,22.89
2022-09-15T21:32:46.098Z,22.90
2022-09-15T21:35:12.724Z,22.90
2022-09-15T21:37:39.400Z,22.90
2022-09-15T21:40:06.622Z,22.92
2022-09-15T21:42:33.272Z,22.94
2022-09-15T21:45:00.337Z,22.99
2022-09-15T21:47:27.419Z,23.04
2022-09-15T21:49:54.080Z,23.08
2022-09-15T21:52:21.646Z,23.12
2022-09-15T21:54:48.285Z,23.14
2022-09-15T21:57:15.327Z,23.18
2022-09-15T21:59:42.741Z,23.21
2022-09-15T22:02:10.900Z,23.24
2022-09-15T22:04:38.262Z,23.26
2022-09-15T22:07:06.060Z,23.23
2022-09-15T22:09:33.482Z,23.31
2022-09-15T22:12:00.166Z,23.32
2022-09-15T22:16:53.447Z,23.38
2022-09-15T22:19:20.114Z,23.40
2022-09-15T22:21:46.752Z,23.41
2022-09-15T22:24:13.916Z,23.44
2022-09-15T22:26:42.457Z,23.45
2022-09-15T22:29:09.458Z,23.44
2022-09-15T22:31:36.700Z,23.47
2022-09-15T22:34:03.717Z,23.48
2022-09-15T22:36:31.396Z,23.50
2022-09-15T22:39:05.998Z,23.51
2022-09-15T22:41:37.960Z,23.51
2022-09-15T22:44:06.704Z,23.53
2022-09-15T22:46:33.384Z,23.53
2022-09-15T22:49:00.201Z,23.55
2022-09-15T22:51:26.943Z,23.56
2022-09-15T22:53:54.750Z,23.57
2022-09-15T22:56:21.487Z,23.59
2022-09-15T22:58:49.504Z,23.58
2022-09-15T23:01:21.530Z,23.45
2022-09-15T23:03:56.573Z,23.55
2022-09-15T23:06:25.374Z,23.61
2022-09-15T23:08:57.025Z,23.63
2022-09-15T23:11:24.724Z,23.19
2022-09-15T23:13:52.425Z,23.64
2022-09-15T23:16:19.825Z,23.54
2022-09-15T23:18:50.999Z,23.66
2022-09-15T23:21:18.220Z,23.54
2022-09-15T23:23:46.640Z,23.66
2022-09-15T23:26:14.138Z,23.67
2022-09-15T23:28:41.599Z,23.68
2022-09-15T23:31:10.210Z,23.63
2022-09-15T23:33:36.772Z,23.69
2022-09-15T23:36:05.759Z,23.71
2022-09-15T23:38:35.333Z,23.70
2022-09-15T23:41:02.028Z,23.71
2022-09-15T23:43:28.671Z,23.66
2022-09-15T23:45:55.339Z,23.67
2022-09-15T23:48:23.313Z,23.74
2022-09-15T23:50:49.994Z,23.72
2022-09-15T23:53:16.701Z,23.74
2022-09-15T23:55:44.843Z,23.75
2022-09-15T23:58:12.142Z,23.75
